Time;durP1;ratioP1;P1;durP2;ratioP2;P2;SDS_P1;SDS_P2;PMS_P1;PMS_P2;Temp;Humidity;BMP_temperature;BMP_pressure;BME280_temperature;BME280_humidity;BME280_pressure;Samples;Min_cycle;Max_cycle;Signal;HPM_P1;HPM_P2
2022/07/07 00:00:16;;;;;;;3.60;2.13;;;16.40;44.40;;;;;;4864885;29;21183;-75
2022/07/07 00:02:43;;;;;;;2.10;2.00;;;16.40;44.40;;;;;;4865514;29;20439;-77
2022/07/07 00:05:10;;;;;;;2.57;2.07;;;16.50;44.10;;;;;;4867708;29;20436;-76
2022/07/07 00:07:38;;;;;;;3.73;2.50;;;16.50;44.10;;;;;;4874646;29;20509;-76
2022/07/07 00:10:06;;;;;;;4.83;2.20;;;16.60;43.90;;;;;;4879030;29;20473;-76
2022/07/07 00:12:33;;;;;;;5.67;2.40;;;16.70;43.80;;;;;;4870527;29;20498;-78
2022/07/07 00:14:59;;;;;;;3.30;2.30;;;16.80;43.60;;;;;;4865116;29;20466;-77
2022/07/07 00:17:26;;;;;;;2.13;1.93;;;16.80;43.20;;;;;;4873060;29;20493;-76
2022/07/07 00:19:53;;;;;;;1.90;1.80;;;16.90;42.70;;;;;;4872596;29;20490;-78
2022/07/07 00:22:20;;;;;;;2.00;1.60;;;16.90;42.20;;;;;;4871476;29;20482;-77
2022/07/07 00:24:48;;;;;;;1.83;1.50;;;17.00;42.40;;;;;;4865050;29;20527;-76
2022/07/07 00:27:15;;;;;;;4.27;1.90;;;17.00;42.40;;;;;;4867144;29;20474;-77
2022/07/07 00:29:43;;;;;;;5.07;1.77;;;17.00;42.30;;;;;;4864273;29;20488;-76
2022/07/07 00:32:10;;;;;;;5.47;2.70;;;17.10;42.50;;;;;;4863662;29;20475;-76
2022/07/07 00:34:38;;;;;;;2.70;1.80;;;17.10;42.60;;;;;;4864518;29;20449;-75
2022/07/07 00:37:04;;;;;;;1.70;1.53;;;17.00;42.60;;;;;;4864688;29;20486;-76
2022/07/07 00:39:31;;;;;;;4.37;2.10;;;16.90;42.60;;;;;;4864288;29;20560;-76
2022/07/07 00:42:00;;;;;;;1.80;1.63;;;16.80;42.50;;;;;;4864587;29;20918;-76
2022/07/07 00:44:26;;;;;;;3.03;1.70;;;16.70;42.70;;;;;;4864070;29;20535;-75
2022/07/07 00:46:54;;;;;;;2.53;1.77;;;16.70;42.80;;;;;;4864574;29;20589;-77
2022/07/07 00:49:22;;;;;;;1.80;1.60;;;16.70;42.50;;;;;;4864849;29;20478;-76
2022/07/07 00:51:49;;;;;;;2.50;1.63;;;16.70;42.10;;;;;;4864162;29;20472;-76
2022/07/07 00:54:16;;;;;;;1.90;1.73;;;16.60;41.90;;;;;;4863086;29;20458;-76
2022/07/07 00:56:43;;;;;;;3.93;1.80;;;16.60;42.20;;;;;;4863330;29;20486;-76
2022/07/07 00:59:13;;;;;;;2.13;1.27;;;16.50;42.20;;;;;;4862766;29;20461;-76
2022/07/07 01:01:42;;;;;;;2.90;1.60;;;16.50;42.70;;;;;;4862943;29;20507;-76
2022/07/07 01:04:11;;;;;;;2.57;1.70;;;16.50;42.90;;;;;;4861551;29;20519;-78
2022/07/07 01:06:38;;;;;;;2.57;2.10;;;16.50;43.30;;;;;;4862649;29;20547;-76
2022/07/07 01:09:05;;;;;;;2.33;2.13;;;16.40;43.50;;;;;;4863725;29;20454;-76
2022/07/07 01:11:46;;;;;;;4.50;2.20;;;16.40;44.00;;;;;;4863316;29;20441;-76
2022/07/07 01:14:14;;;;;;;3.97;1.90;;;16.30;44.80;;;;;;4864336;29;20465;-76
2022/07/07 01:16:41;;;;;;;2.30;2.03;;;16.20;45.30;;;;;;4863051;29;20482;-76
2022/07/07 01:19:08;;;;;;;2.17;1.97;;;16.10;45.20;;;;;;4863407;29;20459;-77
2022/07/07 01:21:53;;;;;;;4.37;2.10;;;16.20;45.30;;;;;;4864019;29;20465;-76
2022/07/07 01:24:22;;;;;;;3.43;2.30;;;16.20;45.30;;;;;;4865453;29;20901;-76
2022/07/07 01:26:49;;;;;;;2.00;1.80;;;16.10;45.20;;;;;;4871498;29;20487;-77
2022/07/07 01:29:16;;;;;;;2.57;1.87;;;16.10;45.20;;;;;;4878470;29;20464;-76
2022/07/07 01:31:43;;;;;;;6.73;2.30;;;16.00;45.20;;;;;;4881486;29;20481;-75
2022/07/07 01:34:10;;;;;;;2.50;2.30;;;15.90;46.20;;;;;;4875528;29;20510;-77
2022/07/07 01:36:37;;;;;;;6.90;2.17;;;15.90;46.10;;;;;;4864440;29;20509;-76
2022/07/07 01:39:04;;;;;;;2.80;2.30;;;15.80;46.70;;;;;;4865084;29;20440;-76
2022/07/07 01:41:32;;;;;;;2.67;2.40;;;15.70;47.10;;;;;;4867482;29;20469;-77
2022/07/07 01:43:59;;;;;;;3.63;2.30;;;15.60;47.30;;;;;;4864086;29;20464;-76
2022/07/07 01:46:25;;;;;;;3.37;1.90;;;15.60;47.80;;;;;;4868362;29;20462;-76
2022/07/07 01:48:52;;;;;;;2.40;2.15;;;15.60;48.30;;;;;;4874512;29;20458;-77
2022/07/07 01:51:19;;;;;;;2.00;1.80;;;15.50;47.60;;;;;;4864556;29;20213;-76
2022/07/07 01:53:46;;;;;;;2.38;2.13;;;15.50;47.80;;;;;;4869754;29;20505;-78
2022/07/07 01:56:13;;;;;;;2.20;2.00;;;15.50;47.90;;;;;;4872826;29;20237;-79
2022/07/07 01:58:41;;;;;;;2.95;2.10;;;15.50;48.00;;;;;;4872395;29;20220;-78
2022/07/07 02:01:08;;;;;;;2.77;2.57;;;15.50;48.30;;;;;;4866219;29;20327;-79
2022/07/07 02:03:35;;;;;;;2.30;2.20;;;15.40;48.70;;;;;;4866181;29;20464;-79
2022/07/07 02:06:02;;;;;;;4.60;2.30;;;15.30;48.90;;;;;;4887514;23;20529;-75
2022/07/07 02:08:28;;;;;;;3.70;2.73;;;15.30;48.90;;;;;;4869764;29;20456;-76
2022/07/07 02:11:13;;;;;;;2.30;2.10;;;15.30;49.30;;;;;;4862779;29;20902;-76
2022/07/07 02:13:42;;;;;;;5.32;3.00;;;15.30;49.30;;;;;;4860909;29;21036;-76
2022/07/07 02:16:10;;;;;;;2.23;2.07;;;15.30;49.30;;;;;;4862122;29;20240;-76
2022/07/07 02:18:38;;;;;;;2.38;2.17;;;15.20;49.30;;;;;;4864802;29;20465;-76
2022/07/07 02:21:06;;;;;;;4.30;2.27;;;15.10;49.40;;;;;;4864014;29;20209;-76
2022/07/07 02:23:34;;;;;;;2.50;2.10;;;15.10;49.20;;;;;;4864572;29;20458;-76
2022/07/07 02:26:01;;;;;;;2.43;1.80;;;15.10;49.00;;;;;;4864144;29;20465;-75
2022/07/07 02:28:28;;;;;;;2.33;2.20;;;15.10;48.50;;;;;;4863307;29;20462;-77
2022/07/07 02:30:57;;;;;;;3.90;2.33;;;15.10;48.90;;;;;;4863268;29;20791;-76
2022/07/07 02:33:25;;;;;;;3.50;2.67;;;15.10;49.20;;;;;;4863316;29;20491;-76
2022/07/07 02:35:52;;;;;;;4.33;2.20;;;15.10;49.20;;;;;;4863187;29;20232;-77
2022/07/07 02:38:19;;;;;;;3.08;2.13;;;15.10;48.90;;;;;;4863181;29;20477;-76
2022/07/07 02:40:46;;;;;;;9.47;2.30;;;15.10;49.10;;;;;;4862779;29;20209;-76
2022/07/07 02:43:13;;;;;;;2.80;2.53;;;15.20;48.90;;;;;;4863058;29;20473;-76
2022/07/07 02:45:41;;;;;;;5.07;2.87;;;15.30;49.00;;;;;;4862726;29;20501;-74
2022/07/07 02:48:09;;;;;;;2.50;2.30;;;15.30;49.00;;;;;;4862815;29;20457;-75
2022/07/07 02:50:36;;;;;;;2.27;2.17;;;15.30;49.10;;;;;;4862227;29;20462;-76
2022/07/07 02:53:03;;;;;;;3.37;2.43;;;15.40;49.00;;;;;;4862722;29;21010;-76
2022/07/07 02:55:31;;;;;;;3.00;2.73;;;15.40;49.00;;;;;;4863154;29;20565;-76
2022/07/07 02:57:58;;;;;;;3.70;2.40;;;15.40;49.00;;;;;;4862415;29;20511;-77
2022/07/07 03:00:25;;;;;;;2.97;2.73;;;15.40;49.40;;;;;;4862946;29;20458;-76
2022/07/07 03:02:52;;;;;;;2.30;2.13;;;15.30;49.40;;;;;;4863041;29;20454;-76
2022/07/07 03:05:20;;;;;;;4.93;2.40;;;15.20;49.60;;;;;;4863624;29;20921;-75
2022/07/07 03:07:47;;;;;;;2.80;1.90;;;15.20;49.90;;;;;;4863811;29;20965;-75
2022/07/07 03:10:14;;;;;;;2.40;2.00;;;15.20;50.10;;;;;;4878300;29;20460;-77
2022/07/07 03:12:41;;;;;;;2.88;2.00;;;15.40;49.20;;;;;;4883103;29;20501;-76
2022/07/07 03:15:09;;;;;;;2.45;1.95;;;15.40;48.00;;;;;;4882713;29;20220;-75
2022/07/07 03:17:36;;;;;;;2.78;1.88;;;15.40;48.00;;;;;;4876760;29;20327;-75
2022/07/07 03:20:03;;;;;;;3.33;2.37;;;15.50;47.90;;;;;;4863322;29;20269;-76
2022/07/07 03:22:31;;;;;;;4.10;2.00;;;15.50;47.30;;;;;;4862680;29;20450;-76
2022/07/07 03:24:58;;;;;;;2.20;2.00;;;15.50;47.20;;;;;;4863163;29;20839;-76
2022/07/07 03:27:25;;;;;;;4.07;2.20;;;15.50;47.10;;;;;;4863033;29;20496;-76
2022/07/07 03:29:52;;;;;;;2.70;2.00;;;15.50;46.90;;;;;;4862827;29;20462;-76
2022/07/07 03:32:19;;;;;;;1.87;1.77;;;15.50;46.90;;;;;;4863024;29;20462;-76
2022/07/07 03:34:46;;;;;;;3.90;2.03;;;15.50;46.70;;;;;;4863894;29;20548;-76
2022/07/07 03:37:13;;;;;;;2.57;2.07;;;15.60;46.70;;;;;;4863686;29;20482;-75
2022/07/07 03:39:41;;;;;;;2.97;2.23;;;15.60;45.70;;;;;;4862603;29;20867;-75
2022/07/07 03:42:08;;;;;;;2.37;2.10;;;15.70;45.80;;;;;;4864408;29;20955;-76
2022/07/07 03:44:35;;;;;;;3.53;2.50;;;15.70;45.30;;;;;;4866919;29;20457;-76
2022/07/07 03:47:03;;;;;;;4.43;2.47;;;15.60;45.70;;;;;;4868040;29;20477;-74
2022/07/07 03:49:30;;;;;;;3.00;1.70;;;15.60;46.00;;;;;;4868247;29;20513;-75
2022/07/07 03:51:57;;;;;;;3.27;2.10;;;15.50;45.90;;;;;;4867993;29;20449;-75
2022/07/07 03:54:24;;;;;;;2.63;2.05;;;15.50;46.10;;;;;;4868564;29;20504;-74
2022/07/07 03:56:52;;;;;;;2.70;2.10;;;15.50;46.20;;;;;;4862787;29;20376;-74
2022/07/07 03:59:19;;;;;;;2.23;2.03;;;15.60;46.10;;;;;;4863261;29;20909;-74
2022/07/07 04:01:46;;;;;;;2.30;1.87;;;15.60;45.80;;;;;;4863328;29;20580;-74
2022/07/07 04:04:13;;;;;;;1.70;1.60;;;15.50;46.10;;;;;;4862300;29;20972;-76
2022/07/07 04:06:40;;;;;;;3.50;2.10;;;15.60;46.00;;;;;;4862418;29;20504;-76
2022/07/07 04:09:07;;;;;;;2.13;1.97;;;15.60;45.40;;;;;;4863871;29;20517;-74
2022/07/07 04:11:33;;;;;;;2.07;1.97;;;15.60;45.40;;;;;;4865353;29;20462;-74
2022/07/07 04:14:03;;;;;;;2.67;2.47;;;15.60;44.70;;;;;;4866436;29;20468;-74
2022/07/07 04:16:31;;;;;;;4.70;2.40;;;15.60;44.70;;;;;;4869106;29;20958;-74
2022/07/07 04:18:58;;;;;;;2.37;2.07;;;15.70;44.80;;;;;;4871736;29;20859;-74
2022/07/07 04:21:25;;;;;;;4.07;1.87;;;15.80;44.90;;;;;;4874342;29;20522;-74
2022/07/07 04:23:52;;;;;;;3.50;2.30;;;15.80;44.90;;;;;;4874327;29;20458;-74
2022/07/07 04:26:19;;;;;;;6.90;2.60;;;15.90;45.00;;;;;;4872625;29;20500;-74
2022/07/07 04:28:45;;;;;;;2.10;1.90;;;16.00;45.10;;;;;;4875194;29;20458;-75
2022/07/07 04:31:14;;;;;;;2.20;2.00;;;16.10;43.90;;;;;;4876829;29;20308;-75
2022/07/07 04:33:40;;;;;;;6.13;2.30;;;16.10;43.50;;;;;;4882631;29;20514;-76
2022/07/07 04:36:09;;;;;;;2.57;2.33;;;16.20;43.40;;;;;;4882371;29;20557;-76
2022/07/07 04:38:36;;;;;;;4.70;2.07;;;16.30;42.70;;;;;;4882847;29;20478;-77
2022/07/07 04:41:03;;;;;;;2.97;2.70;;;16.30;42.50;;;;;;4882326;29;20468;-75
2022/07/07 04:43:29;;;;;;;3.63;2.27;;;16.40;42.50;;;;;;4880368;29;20517;-74
2022/07/07 04:45:56;;;;;;;2.37;2.10;;;16.50;41.80;;;;;;4868181;29;20478;-74
2022/07/07 04:48:24;;;;;;;5.07;2.30;;;16.50;41.90;;;;;;4867519;29;20466;-75
2022/07/07 04:50:51;;;;;;;3.83;2.03;;;16.50;41.80;;;;;;4864563;29;20592;-76
2022/07/07 04:53:18;;;;;;;2.53;2.00;;;16.60;41.90;;;;;;4862630;29;20480;-76
2022/07/07 04:55:45;;;;;;;4.40;1.97;;;16.70;41.80;;;;;;4862985;29;20539;-76
2022/07/07 04:58:11;;;;;;;5.10;2.57;;;16.80;41.90;;;;;;4862486;29;20440;-75
2022/07/07 05:00:38;;;;;;;3.00;2.00;;;16.90;41.50;;;;;;4862693;29;20465;-75
2022/07/07 05:03:05;;;;;;;4.93;2.10;;;17.00;41.10;;;;;;4871748;29;20454;-77
2022/07/07 05:05:33;;;;;;;2.10;2.00;;;17.00;41.00;;;;;;4863613;29;20565;-75
2022/07/07 05:08:00;;;;;;;2.50;2.30;;;17.20;41.00;;;;;;4861618;29;20468;-76
2022/07/07 05:10:27;;;;;;;7.10;2.70;;;17.10;40.90;;;;;;4861653;29;20461;-75
2022/07/07 05:12:54;;;;;;;3.50;2.50;;;16.90;41.50;;;;;;4860648;29;20985;-74
2022/07/07 05:15:21;;;;;;;2.50;2.30;;;16.80;41.90;;;;;;4861743;29;20465;-74
2022/07/07 05:17:48;;;;;;;3.83;2.10;;;16.90;42.00;;;;;;4864383;29;20568;-74
2022/07/07 05:20:15;;;;;;;9.13;2.70;;;16.90;41.70;;;;;;4862444;29;20572;-76
2022/07/07 05:22:43;;;;;;;2.93;2.47;;;17.00;41.90;;;;;;4863617;29;20540;-75
2022/07/07 05:25:11;;;;;;;2.17;2.07;;;17.00;41.80;;;;;;4862619;29;20484;-74
2022/07/07 05:27:38;;;;;;;3.73;2.53;;;17.00;41.70;;;;;;4862127;29;21023;-74
2022/07/07 05:30:06;;;;;;;3.80;2.50;;;17.10;41.60;;;;;;4862846;29;21015;-75
2022/07/07 05:32:34;;;;;;;2.10;1.90;;;17.00;41.70;;;;;;4862601;29;20459;-74
2022/07/07 05:35:01;;;;;;;4.07;2.40;;;17.20;41.40;;;;;;4861969;29;20556;-74
2022/07/07 05:37:28;;;;;;;3.53;2.43;;;17.30;41.30;;;;;;4861455;29;20484;-74
2022/07/07 05:39:56;;;;;;;2.60;2.40;;;17.30;41.00;;;;;;4861467;29;20458;-75
2022/07/07 05:42:23;;;;;;;2.70;2.50;;;17.30;41.00;;;;;;4862541;29;20464;-77
2022/07/07 05:44:50;;;;;;;4.80;2.50;;;17.20;41.00;;;;;;4864669;29;20437;-75
2022/07/07 05:47:17;;;;;;;3.70;2.30;;;17.30;41.00;;;;;;4865050;29;20456;-75
2022/07/07 05:49:44;;;;;;;2.10;2.00;;;17.40;40.80;;;;;;4866571;29;20803;-79
2022/07/07 05:52:10;;;;;;;4.97;2.33;;;17.70;40.40;;;;;;4868745;29;20999;-77
2022/07/07 05:54:37;;;;;;;3.20;2.30;;;17.90;39.70;;;;;;4867633;29;20497;-75
2022/07/07 05:57:07;;;;;;;3.43;2.13;;;18.00;38.90;;;;;;4868740;29;20572;-75
2022/07/07 05:59:34;;;;;;;5.20;2.87;;;18.00;38.90;;;;;;4872420;29;20553;-75
2022/07/07 06:02:01;;;;;;;6.53;2.13;;;18.00;38.70;;;;;;4871722;29;20444;-76
2022/07/07 06:04:28;;;;;;;6.83;2.57;;;18.10;38.60;;;;;;4871701;29;20898;-76
2022/07/07 06:06:55;;;;;;;5.10;2.17;;;18.10;38.30;;;;;;4871844;29;20493;-75
2022/07/07 06:09:23;;;;;;;3.90;1.93;;;18.60;37.50;;;;;;4870345;29;20446;-75
2022/07/07 06:11:50;;;;;;;5.23;2.10;;;19.60;35.70;;;;;;4873975;29;20466;-74
2022/07/07 06:14:18;;;;;;;3.53;1.90;;;20.80;32.10;;;;;;4874572;29;20551;-75
2022/07/07 06:16:45;;;;;;;2.63;2.43;;;21.60;30.00;;;;;;4876041;29;20454;-75
2022/07/07 06:19:14;;;;;;;5.60;1.87;;;22.40;30.00;;;;;;4878424;29;20489;-75
2022/07/07 06:21:42;;;;;;;4.37;2.40;;;23.10;28.50;;;;;;4873529;29;20505;-75
2022/07/07 06:24:09;;;;;;;2.60;1.80;;;22.90;28.50;;;;;;4869343;29;20469;-75
2022/07/07 06:26:36;;;;;;;4.67;2.07;;;22.40;29.10;;;;;;4866471;29;20460;-75
2022/07/07 06:29:03;;;;;;;1.93;1.80;;;21.80;30.20;;;;;;4875550;29;20513;-75
2022/07/07 06:31:32;;;;;;;2.07;1.73;;;21.30;30.40;;;;;;4881685;29;20547;-77
2022/07/07 06:33:58;;;;;;;3.30;1.80;;;21.70;30.00;;;;;;4874430;29;20474;-74
2022/07/07 06:36:25;;;;;;;6.20;2.33;;;22.30;30.00;;;;;;4865422;29;20489;-75
2022/07/07 06:38:52;;;;;;;3.73;2.40;;;23.00;28.40;;;;;;4866448;29;20462;-76
2022/07/07 06:41:19;;;;;;;4.03;1.90;;;23.40;28.10;;;;;;4872239;29;20511;-76
2022/07/07 06:43:46;;;;;;;3.10;1.70;;;23.70;27.40;;;;;;4865899;29;20461;-76
2022/07/07 06:46:13;;;;;;;2.83;2.00;;;22.90;27.80;;;;;;4863889;29;21101;-76
2022/07/07 06:48:41;;;;;;;2.60;1.90;;;21.90;29.40;;;;;;4864081;29;20451;-76
2022/07/07 06:51:07;;;;;;;5.90;1.93;;;21.10;29.70;;;;;;4864616;29;20493;-77
2022/07/07 06:53:35;;;;;;;4.40;2.37;;;20.80;30.50;;;;;;4873764;29;20456;-77
2022/07/07 06:56:02;;;;;;;4.43;2.10;;;20.20;32.10;;;;;;4878585;29;20448;-77
2022/07/07 06:58:29;;;;;;;3.30;2.07;;;19.90;33.10;;;;;;4864535;29;20456;-77
2022/07/07 07:00:55;;;;;;;2.73;2.47;;;19.80;33.40;;;;;;4864605;29;20520;-77
2022/07/07 07:03:22;;;;;;;3.83;2.00;;;19.60;33.60;;;;;;4864331;29;20433;-75
2022/07/07 07:05:50;;;;;;;5.00;1.90;;;19.30;34.40;;;;;;4869866;29;20444;-76
2022/07/07 07:08:17;;;;;;;8.03;2.20;;;19.00;34.90;;;;;;4866516;29;20439;-76
2022/07/07 07:10:44;;;;;;;4.70;1.90;;;18.90;35.30;;;;;;4871685;29;20538;-78
2022/07/07 07:13:11;;;;;;;2.93;2.33;;;19.00;35.60;;;;;;4874026;29;20493;-76
2022/07/07 07:15:39;;;;;;;7.43;2.40;;;19.00;35.30;;;;;;4870621;29;20417;-77
2022/07/07 07:18:06;;;;;;;5.63;2.10;;;19.00;35.80;;;;;;4851122;29;20458;-76
2022/07/07 07:20:33;;;;;;;2.87;1.97;;;18.90;35.90;;;;;;4863345;29;20436;-76
2022/07/07 07:23:01;;;;;;;3.53;1.90;;;19.00;36.10;;;;;;4864776;29;20450;-76
2022/07/07 07:25:28;;;;;;;4.83;2.00;;;19.00;36.40;;;;;;4872872;29;20458;-77
2022/07/07 07:27:55;;;;;;;2.80;2.00;;;19.20;36.30;;;;;;4877418;29;20508;-77
2022/07/07 07:30:22;;;;;;;4.03;2.17;;;19.20;36.00;;;;;;4878369;29;20455;-75
2022/07/07 07:32:49;;;;;;;4.07;2.30;;;19.50;35.70;;;;;;4877197;29;20454;-75
2022/07/07 07:35:15;;;;;;;6.97;2.40;;;19.80;35.00;;;;;;4872551;29;20838;-77
2022/07/07 07:37:42;;;;;;;3.37;2.27;;;19.90;34.60;;;;;;4866422;29;20672;-77
2022/07/07 07:40:12;;;;;;;5.00;2.00;;;20.10;34.50;;;;;;4862340;29;20456;-77
2022/07/07 07:42:39;;;;;;;2.53;2.33;;;20.10;34.60;;;;;;4861974;29;20469;-77
2022/07/07 07:45:11;;;;;;;2.43;2.23;;;19.90;35.00;;;;;;4862796;29;20539;-76
2022/07/07 07:47:38;;;;;;;7.73;2.47;;;19.90;35.10;;;;;;4862355;29;20887;-77
2022/07/07 07:50:07;;;;;;;2.60;2.40;;;20.00;35.10;;;;;;4862307;29;20779;-78
2022/07/07 07:52:33;;;;;;;4.17;2.33;;;19.90;35.70;;;;;;4861745;29;20468;-77
2022/07/07 07:55:00;;;;;;;7.17;3.13;;;19.80;36.20;;;;;;4864655;29;20500;-77
2022/07/07 07:57:29;;;;;;;2.93;2.73;;;19.60;36.50;;;;;;4871908;29;20555;-77
2022/07/07 07:59:55;;;;;;;2.40;2.20;;;19.20;38.10;;;;;;4860588;29;21167;-75
2022/07/07 08:02:22;;;;;;;2.73;2.33;;;19.20;38.10;;;;;;4860034;29;20487;-75
2022/07/07 08:04:49;;;;;;;3.00;2.07;;;19.10;38.00;;;;;;4863971;29;20439;-75
2022/07/07 08:07:17;;;;;;;7.63;2.57;;;19.00;37.90;;;;;;4878699;23;20487;-78
2022/07/07 08:09:43;;;;;;;3.67;3.00;;;18.90;38.80;;;;;;4875104;29;20444;-80
2022/07/07 08:12:11;;;;;;;3.20;2.67;;;18.70;39.70;;;;;;4876699;29;20489;-80
2022/07/07 08:14:40;;;;;;;3.73;2.33;;;18.80;39.80;;;;;;4876634;29;20500;-80
2022/07/07 08:17:07;;;;;;;3.23;2.93;;;18.80;40.10;;;;;;4866536;29;21071;-80
2022/07/07 08:19:34;;;;;;;3.30;2.30;;;18.80;40.00;;;;;;4851368;29;20518;-81
2022/07/07 08:22:01;;;;;;;7.13;2.80;;;18.90;40.20;;;;;;4851171;29;20853;-78
2022/07/07 08:24:28;;;;;;;3.57;2.50;;;18.90;40.30;;;;;;4850904;29;20467;-76
2022/07/07 08:26:55;;;;;;;3.87;2.70;;;19.00;40.40;;;;;;4850457;29;20863;-77
2022/07/07 08:29:22;;;;;;;4.47;2.80;;;19.00;41.00;;;;;;4853331;29;20445;-77
2022/07/07 08:31:50;;;;;;;4.50;2.80;;;18.90;42.80;;;;;;4848808;29;20582;-77
2022/07/07 08:34:17;;;;;;;3.73;2.50;;;19.00;42.30;;;;;;4848299;29;20575;-76
2022/07/07 08:36:44;;;;;;;6.53;2.60;;;19.20;42.00;;;;;;4850263;29;20473;-77
2022/07/07 08:39:10;;;;;;;4.80;2.60;;;19.40;41.30;;;;;;4853796;29;20841;-78
2022/07/07 08:41:38;;;;;;;3.00;2.40;;;19.50;40.60;;;;;;4860024;29;20455;-78
2022/07/07 08:44:05;;;;;;;8.37;3.93;;;19.90;39.40;;;;;;4845334;29;20466;-79
2022/07/07 08:46:32;;;;;;;7.27;2.90;;;20.30;39.10;;;;;;4844795;29;20489;-78
2022/07/07 08:49:00;;;;;;;5.13;2.50;;;20.80;37.90;;;;;;4844827;29;20928;-77
2022/07/07 08:51:27;;;;;;;3.70;2.80;;;21.10;36.70;;;;;;4832404;29;20962;-77
2022/07/07 08:53:54;;;;;;;3.10;2.80;;;21.30;36.10;;;;;;4848791;29;20469;-78
2022/07/07 08:56:22;;;;;;;6.30;2.83;;;21.20;36.50;;;;;;4851694;29;20497;-78
2022/07/07 08:58:50;;;;;;;7.20;2.53;;;21.20;36.70;;;;;;4854136;29;20438;-78
2022/07/07 09:01:17;;;;;;;9.83;2.87;;;21.40;36.30;;;;;;4851687;29;20543;-78
2022/07/07 09:03:44;;;;;;;4.53;2.73;;;21.60;36.10;;;;;;4850301;29;20928;-78
2022/07/07 09:06:13;;;;;;;6.00;2.97;;;21.90;35.50;;;;;;4862735;29;20479;-79
2022/07/07 09:08:40;;;;;;;6.13;2.30;;;21.90;35.40;;;;;;4861098;29;20478;-77
2022/07/07 09:11:10;;;;;;;7.03;3.07;;;21.90;35.60;;;;;;4855526;29;20441;-77
2022/07/07 09:13:37;;;;;;;6.23;2.60;;;21.80;36.10;;;;;;4851489;29;20483;-77
2022/07/07 09:16:13;;;;;;;5.80;2.97;;;22.00;35.70;;;;;;4852827;29;20486;-77
2022/07/07 09:18:41;;;;;;;3.00;2.23;;;22.50;34.70;;;;;;4848618;29;20469;-77
2022/07/07 09:21:27;;;;;;;3.37;2.53;;;22.90;33.70;;;;;;4848923;29;20464;-77
2022/07/07 09:23:55;;;;;;;4.50;3.10;;;23.10;33.10;;;;;;4853880;29;20493;-79
2022/07/07 09:26:35;;;;;;;2.60;2.17;;;22.90;33.30;;;;;;4856552;29;20928;-78
2022/07/07 09:29:02;;;;;;;6.37;2.60;;;22.70;34.10;;;;;;4863796;29;20469;-77
2022/07/07 09:31:51;;;;;;;5.63;2.83;;;22.60;34.30;;;;;;4862825;29;20457;-76
2022/07/07 09:34:18;;;;;;;5.47;2.70;;;22.70;34.30;;;;;;4850826;29;20465;-77
2022/07/07 09:39:43;;;;;;;3.93;2.50;;;22.70;34.20;;;;;;4854080;29;20932;-78
2022/07/07 09:42:19;;;;;;;4.90;2.87;;;22.80;33.70;;;;;;4851906;29;20461;-77
2022/07/07 09:44:47;;;;;;;3.60;2.60;;;23.00;33.60;;;;;;4857951;29;20445;-78
2022/07/07 09:47:14;;;;;;;5.47;2.40;;;22.60;34.20;;;;;;4856280;29;20501;-77
2022/07/07 09:49:43;;;;;;;4.00;2.20;;;22.70;34.50;;;;;;4858158;29;20476;-77
2022/07/07 09:52:17;;;;;;;3.70;2.20;;;23.00;34.10;;;;;;4857497;29;20544;-77
2022/07/07 09:54:47;;;;;;;4.83;2.47;;;23.10;33.60;;;;;;4861962;29;20457;-76
2022/07/07 09:57:14;;;;;;;4.10;2.70;;;23.30;33.50;;;;;;4860626;29;20545;-79
2022/07/07 09:59:42;;;;;;;9.87;2.53;;;23.20;33.70;;;;;;4862715;29;20488;-79
2022/07/07 10:02:17;;;;;;;5.13;2.70;;;22.80;35.10;;;;;;4860435;29;20461;-78
2022/07/07 10:04:47;;;;;;;7.53;2.60;;;22.60;36.60;;;;;;4857364;29;21012;-77
2022/07/07 10:07:15;;;;;;;7.90;2.43;;;22.50;36.30;;;;;;4858350;29;20578;-78
2022/07/07 10:09:45;;;;;;;4.00;2.43;;;22.70;35.80;;;;;;4859137;29;20486;-78
2022/07/07 10:12:14;;;;;;;9.63;2.67;;;22.80;35.90;;;;;;4860920;29;20464;-76
2022/07/07 10:14:44;;;;;;;4.70;2.47;;;22.60;36.10;;;;;;4862936;29;20517;-81
2022/07/07 10:17:16;;;;;;;9.63;5.17;;;22.60;36.10;;;;;;4861221;29;20470;-79
2022/07/07 10:19:43;;;;;;;3.93;2.60;;;22.90;35.70;;;;;;4861135;29;20469;-78
2022/07/07 10:22:12;;;;;;;4.27;2.77;;;23.30;34.60;;;;;;4860468;29;20865;-80
2022/07/07 10:24:40;;;;;;;2.87;2.63;;;23.70;33.80;;;;;;4860150;29;20538;-78
2022/07/07 10:27:14;;;;;;;6.27;3.10;;;23.60;33.80;;;;;;4861435;29;20549;-79
2022/07/07 10:29:44;;;;;;;7.57;2.80;;;23.20;35.50;;;;;;4859918;29;20469;-79
2022/07/07 10:32:12;;;;;;;4.90;2.60;;;22.90;35.50;;;;;;4859376;29;20507;-78
2022/07/07 10:34:41;;;;;;;4.87;2.83;;;22.80;35.90;;;;;;4859043;29;20501;-77
2022/07/07 10:37:10;;;;;;;4.07;2.60;;;22.90;35.90;;;;;;4860801;29;20468;-78
2022/07/07 10:39:43;;;;;;;7.07;3.10;;;22.80;36.10;;;;;;4863146;29;20424;-79
2022/07/07 10:42:51;;;;;;;4.83;2.90;;;22.90;36.40;;;;;;4860687;29;20433;-75
2022/07/07 10:45:18;;;;;;;3.47;2.90;;;22.80;36.30;;;;;;4839556;29;20762;-78
2022/07/07 10:47:46;;;;;;;5.03;2.83;;;22.70;36.50;;;;;;4837041;29;20574;-79
2022/07/07 10:50:28;;;;;;;6.73;2.73;;;22.60;37.10;;;;;;4846025;29;20462;-79
2022/07/07 10:52:55;;;;;;;6.10;2.93;;;22.60;37.20;;;;;;4853279;29;20484;-77
2022/07/07 10:55:22;;;;;;;6.00;2.30;;;22.50;37.30;;;;;;4856661;29;20472;-79
2022/07/07 10:57:50;;;;;;;2.73;2.47;;;22.60;37.30;;;;;;4851264;29;21009;-77
2022/07/07 11:00:19;;;;;;;4.33;2.83;;;22.50;37.30;;;;;;4851655;29;20443;-77
2022/07/07 11:02:49;;;;;;;4.50;2.73;;;22.40;38.00;;;;;;4850717;29;20429;-77
2022/07/07 11:05:34;;;;;;;6.10;3.40;;;22.60;37.60;;;;;;4860465;29;20488;-77
2022/07/07 11:08:10;;;;;;;5.00;2.83;;;23.10;36.60;;;;;;4863636;29;20492;-77
2022/07/07 11:10:53;;;;;;;3.80;2.70;;;23.40;36.00;;;;;;4862973;29;20470;-79
2022/07/07 11:13:25;;;;;;;2.63;2.03;;;23.60;35.90;;;;;;4863417;29;20476;-77
2022/07/07 11:15:53;;;;;;;5.30;3.10;;;23.80;35.40;;;;;;4864414;29;20473;-77
2022/07/07 11:18:20;;;;;;;3.50;2.27;;;24.00;34.90;;;;;;4863340;29;20577;-77
2022/07/07 11:20:58;;;;;;;2.90;2.20;;;24.10;34.90;;;;;;4861227;29;20437;-78
2022/07/07 11:23:28;;;;;;;5.23;2.70;;;23.90;35.00;;;;;;4853521;29;20448;-78
2022/07/07 11:25:57;;;;;;;7.60;2.13;;;24.00;35.00;;;;;;4855481;29;20470;-78
2022/07/07 11:28:27;;;;;;;2.93;2.13;;;24.00;34.60;;;;;;4855017;29;20475;-79
2022/07/07 11:31:08;;;;;;;3.23;2.47;;;24.00;34.70;;;;;;4846614;29;20485;-77
2022/07/07 11:33:38;;;;;;;2.83;2.63;;;23.90;34.90;;;;;;4845818;29;20448;-78
2022/07/07 11:36:17;;;;;;;2.37;1.90;;;23.60;35.70;;;;;;4846296;29;20503;-77
2022/07/07 11:38:45;;;;;;;3.00;2.10;;;23.20;36.20;;;;;;4845650;29;20453;-80
2022/07/07 11:41:13;;;;;;;2.40;2.20;;;23.10;36.50;;;;;;4854709;29;20440;-77
2022/07/07 11:43:41;;;;;;;3.17;2.53;;;22.70;37.60;;;;;;4842876;29;20676;-76
2022/07/07 11:46:08;;;;;;;3.53;3.23;;;22.70;37.30;;;;;;4846277;29;20537;-77
2022/07/07 11:48:41;;;;;;;2.83;2.33;;;22.70;37.30;;;;;;4845698;29;20438;-77
2022/07/07 11:51:08;;;;;;;3.73;2.57;;;23.00;36.90;;;;;;4845537;29;20467;-77
2022/07/07 11:53:35;;;;;;;2.30;2.17;;;23.10;36.60;;;;;;4847361;29;20955;-77
2022/07/07 11:56:03;;;;;;;6.10;2.33;;;23.10;36.60;;;;;;4853999;29;20575;-77
2022/07/07 11:58:30;;;;;;;2.90;2.00;;;23.10;36.60;;;;;;4858457;29;20459;-77
2022/07/07 12:00:59;;;;;;;3.93;2.30;;;23.00;36.50;;;;;;4857348;29;20447;-77
2022/07/07 12:03:34;;;;;;;3.30;2.27;;;22.90;37.10;;;;;;4866473;29;20444;-77
2022/07/07 12:06:02;;;;;;;9.03;2.33;;;22.70;38.30;;;;;;4858017;29;20478;-78
2022/07/07 12:08:34;;;;;;;3.50;2.73;;;22.70;37.70;;;;;;4847204;29;20442;-77
2022/07/07 12:11:02;;;;;;;2.83;1.83;;;22.90;37.30;;;;;;4848261;29;20445;-78
2022/07/07 12:13:29;;;;;;;4.90;2.10;;;23.30;36.50;;;;;;4845547;29;20445;-78
2022/07/07 12:15:58;;;;;;;4.83;2.30;;;23.50;36.30;;;;;;4848984;29;20505;-78
2022/07/07 12:18:39;;;;;;;2.67;2.47;;;23.50;36.10;;;;;;4861707;29;20482;-79
2022/07/07 12:21:08;;;;;;;4.03;2.50;;;23.90;35.60;;;;;;4854339;29;21259;-77
2022/07/07 12:23:40;;;;;;;3.37;2.37;;;24.10;35.00;;;;;;4845848;29;20440;-79
2022/07/07 12:26:12;;;;;;;4.80;2.30;;;24.00;35.50;;;;;;4846113;29;20429;-77
2022/07/07 12:28:40;;;;;;;3.73;2.13;;;23.90;35.40;;;;;;4846481;29;20474;-79
2022/07/07 12:31:08;;;;;;;4.87;2.43;;;23.70;35.60;;;;;;4846365;29;20437;-77
2022/07/07 12:33:37;;;;;;;2.13;2.03;;;23.70;36.10;;;;;;4844764;29;20852;-79
2022/07/07 12:36:16;;;;;;;3.80;2.53;;;24.10;35.40;;;;;;4842950;29;20487;-78
2022/07/07 12:38:47;;;;;;;3.67;2.03;;;24.40;34.60;;;;;;4845067;29;20909;-76
2022/07/07 12:41:24;;;;;;;2.27;2.17;;;24.80;32.90;;;;;;4846808;29;20537;-77
2022/07/07 12:43:51;;;;;;;2.07;1.87;;;24.70;33.20;;;;;;4847168;29;20445;-76
2022/07/07 12:46:20;;;;;;;3.03;1.80;;;24.90;33.00;;;;;;4846426;29;20571;-76
2022/07/07 12:48:52;;;;;;;1.83;1.73;;;25.00;33.10;;;;;;4847173;29;20786;-76
2022/07/07 12:51:25;;;;;;;2.90;2.13;;;24.90;33.10;;;;;;4844323;29;20555;-77
2022/07/07 12:53:52;;;;;;;3.00;2.07;;;24.40;34.00;;;;;;4844064;29;20453;-77
2022/07/07 12:56:20;;;;;;;2.27;2.10;;;24.00;35.20;;;;;;4845131;29;20490;-77